Time;durP1;ratioP1;P1;durP2;ratioP2;P2;SDS_P1;SDS_P2;PMS_P1;PMS_P2;Temp;Humidity;BMP_temperature;BMP_pressure;BME280_temperature;BME280_humidity;BME280_pressure;Samples;Min_cycle;Max_cycle;Signal;HPM_P1;HPM_P2
2022/07/02 00:05:31;;;;;;;;;;;;;;;;;;;;;
2022/07/02 00:08:30;;;;;;;3.45;3.05;;;12.60;99.90;;;;;;5033887;28;20263;-86
2022/07/02 00:10:59;;;;;;;3.67;3.03;;;12.60;99.90;;;;;;5110448;28;20223;-87
2022/07/02 00:13:52;;;;;;;3.78;3.40;;;12.50;99.90;;;;;;5121804;28;20216;-87
2022/07/02 00:16:27;;;;;;;4.40;3.20;;;12.40;99.90;;;;;;5118946;28;20200;-87
2022/07/02 00:29:32;;;;;;;4.03;3.20;;;12.30;99.90;;;;;;5114818;28;20275;-87
2022/07/02 00:35:46;;;;;;;4.13;3.72;;;12.40;99.90;;;;;;5124702;28;20183;-87
2022/07/02 00:45:18;;;;;;;3.90;3.47;;;12.40;99.90;;;;;;5114403;28;20202;-87
2022/07/02 00:48:13;;;;;;;3.95;3.55;;;12.30;99.90;;;;;;5118847;28;20204;-87
2022/07/02 00:50:41;;;;;;;4.28;3.88;;;12.30;99.90;;;;;;5114579;28;20283;-87
2022/07/02 00:53:16;;;;;;;4.18;3.70;;;12.30;99.90;;;;;;5117098;28;20193;-88
2022/07/02 00:55:44;;;;;;;4.10;3.70;;;12.20;99.90;;;;;;5117989;28;20192;-87
2022/07/02 00:58:34;;;;;;;3.88;3.58;;;12.10;99.90;;;;;;5120983;28;20203;-87
2022/07/02 01:01:15;;;;;;;4.47;3.90;;;12.00;99.90;;;;;;5117044;28;20192;-88
2022/07/02 01:07:11;;;;;;;4.47;4.00;;;12.20;99.90;;;;;;5099520;28;20269;-86
2022/07/02 01:13:20;;;;;;;7.28;4.00;;;12.10;99.90;;;;;;5099248;28;20215;-87
2022/07/02 01:15:47;;;;;;;4.40;4.00;;;12.10;99.90;;;;;;5106738;28;20208;-87
2022/07/02 01:18:44;;;;;;;4.30;3.90;;;12.10;99.90;;;;;;5106479;28;20299;-87
2022/07/02 01:21:43;;;;;;;4.40;4.00;;;12.10;99.90;;;;;;5104084;28;20192;-86
2022/07/02 01:24:26;;;;;;;4.60;4.13;;;12.20;99.90;;;;;;5105724;28;20209;-87
2022/07/02 01:27:26;;;;;;;4.03;3.72;;;12.30;99.90;;;;;;5100283;28;20220;-87
2022/07/02 01:30:38;;;;;;;5.15;4.43;;;12.20;99.90;;;;;;5103383;28;20193;-87
2022/07/02 01:33:13;;;;;;;4.60;4.20;;;12.10;99.90;;;;;;5098244;28;20291;-87
2022/07/02 01:35:51;;;;;;;5.68;4.63;;;12.20;99.90;;;;;;5095509;28;20203;-87
2022/07/02 01:38:38;;;;;;;6.13;4.70;;;12.20;99.90;;;;;;5095952;28;20199;-86
2022/07/02 01:44:09;;;;;;;5.88;4.13;;;11.90;99.90;;;;;;5101393;28;20226;-86
2022/07/02 01:49:58;;;;;;;4.60;4.20;;;11.90;99.90;;;;;;5094795;28;20222;-86
2022/07/02 01:52:39;;;;;;;8.52;5.50;;;11.90;99.90;;;;;;5091660;28;20211;-87
2022/07/02 01:55:09;;;;;;;6.20;5.45;;;11.80;99.90;;;;;;5102250;28;20275;-86
2022/07/02 01:57:46;;;;;;;6.68;5.57;;;11.80;99.90;;;;;;5101654;28;20197;-87
2022/07/02 02:00:15;;;;;;;8.55;7.18;;;11.90;99.90;;;;;;5090095;28;20219;-87
2022/07/02 02:03:14;;;;;;;9.15;8.35;;;11.90;99.90;;;;;;5092943;28;20185;-86
2022/07/02 02:05:41;;;;;;;12.10;10.90;;;11.90;99.90;;;;;;5099287;28;20193;-87
2022/07/02 02:08:08;;;;;;;10.85;9.82;;;11.90;99.90;;;;;;5099248;28;20276;-87
2022/07/02 02:10:45;;;;;;;8.50;7.80;;;11.90;99.90;;;;;;5099144;28;20205;-86
2022/07/02 02:13:13;;;;;;;11.25;7.50;;;11.80;99.90;;;;;;5098245;28;20207;-87
2022/07/02 02:15:40;;;;;;;10.00;7.90;;;11.70;99.90;;;;;;5099440;28;20270;-86
2022/07/02 02:18:15;;;;;;;7.10;6.47;;;11.70;99.90;;;;;;5097923;28;20211;-87
2022/07/02 02:20:51;;;;;;;6.60;6.00;;;11.60;99.90;;;;;;5102219;28;20192;-87
2022/07/02 02:23:18;;;;;;;6.43;5.82;;;11.50;99.90;;;;;;5101772;28;20192;-87
2022/07/02 02:26:03;;;;;;;7.38;5.47;;;11.60;99.90;;;;;;5097330;28;20205;-87
2022/07/02 02:28:32;;;;;;;6.40;5.18;;;11.70;99.90;;;;;;5097962;28;20201;-87
2022/07/02 02:31:03;;;;;;;6.00;5.40;;;11.80;99.90;;;;;;5096487;28;20649;-86
2022/07/02 02:33:39;;;;;;;6.38;5.47;;;11.70;99.90;;;;;;5100685;28;20878;-87
2022/07/02 02:36:06;;;;;;;5.18;4.78;;;11.60;99.90;;;;;;5098850;28;20197;-87
2022/07/02 02:38:46;;;;;;;5.75;4.70;;;11.50;99.90;;;;;;5092835;28;20196;-87
2022/07/02 02:41:15;;;;;;;4.55;4.15;;;11.60;99.90;;;;;;5085429;28;20292;-86
2022/07/02 02:43:52;;;;;;;5.43;4.93;;;11.60;99.90;;;;;;5100331;28;20189;-86
2022/07/02 02:46:33;;;;;;;6.68;4.60;;;11.60;99.90;;;;;;5097790;28;20192;-86
2022/07/02 02:49:03;;;;;;;6.85;4.53;;;11.50;99.90;;;;;;5100824;28;20661;-87
2022/07/02 02:51:39;;;;;;;4.95;4.28;;;11.40;99.90;;;;;;5093820;28;20220;-87
2022/07/02 02:54:15;;;;;;;4.47;4.07;;;11.40;99.90;;;;;;5101760;28;20239;-87
2022/07/02 02:56:41;;;;;;;4.50;4.10;;;11.50;99.90;;;;;;5094089;28;20192;-86
2022/07/02 02:59:10;;;;;;;5.00;4.10;;;11.50;99.90;;;;;;5098822;28;20199;-87
2022/07/02 03:01:39;;;;;;;5.00;4.40;;;11.40;99.90;;;;;;5098523;28;20227;-87
2022/07/02 03:04:26;;;;;;;5.72;4.40;;;11.40;99.90;;;;;;5097426;28;20196;-86
2022/07/02 03:07:09;;;;;;;4.78;4.30;;;11.30;99.90;;;;;;5092356;28;20192;-86
2022/07/02 03:10:17;;;;;;;5.28;4.50;;;11.30;99.90;;;;;;5097137;28;20199;-87
2022/07/02 03:12:57;;;;;;;5.10;4.50;;;11.30;99.90;;;;;;5090058;28;20200;-87
2022/07/02 03:15:46;;;;;;;6.43;4.55;;;11.20;99.90;;;;;;5099148;28;20195;-87
2022/07/02 03:18:13;;;;;;;4.57;4.18;;;11.10;99.90;;;;;;5099207;28;20189;-86
2022/07/02 03:20:51;;;;;;;6.72;4.57;;;11.10;99.90;;;;;;5097725;28;20709;-86
2022/07/02 03:23:17;;;;;;;4.90;4.40;;;11.10;99.90;;;;;;5099797;28;20207;-87
2022/07/02 03:25:44;;;;;;;5.05;4.18;;;11.10;99.90;;;;;;5099609;28;20206;-86
2022/07/02 03:28:50;;;;;;;5.13;4.45;;;11.20;99.90;;;;;;5084917;28;20196;-87
2022/07/02 03:31:28;;;;;;;4.93;4.38;;;11.30;99.90;;;;;;5095813;28;20281;-87
2022/07/02 03:34:09;;;;;;;4.25;3.72;;;11.40;99.90;;;;;;5090336;28;20218;-86
2022/07/02 03:36:36;;;;;;;4.45;4.05;;;11.40;99.90;;;;;;5098630;28;20200;-86
2022/07/02 03:39:03;;;;;;;4.18;3.80;;;11.30;99.90;;;;;;5099921;28;20214;-87
2022/07/02 03:41:30;;;;;;;4.15;3.78;;;11.30;99.90;;;;;;5098696;28;20686;-87
2022/07/02 03:44:15;;;;;;;5.72;3.50;;;11.30;99.90;;;;;;5082672;28;20192;-87
2022/07/02 03:47:04;;;;;;;5.50;3.00;;;11.40;99.90;;;;;;5082898;28;20201;-88
2022/07/02 03:49:45;;;;;;;2.95;2.75;;;11.50;99.90;;;;;;5093874;28;20204;-87
2022/07/02 03:52:26;;;;;;;3.03;2.80;;;11.50;99.90;;;;;;5093749;28;20208;-87
2022/07/02 03:54:57;;;;;;;3.58;2.88;;;11.50;99.90;;;;;;5093561;28;20196;-87
2022/07/02 03:57:24;;;;;;;2.75;2.55;;;11.60;99.90;;;;;;5097506;28;20203;-86
2022/07/02 03:59:51;;;;;;;4.07;2.70;;;11.70;99.90;;;;;;5096543;28;20192;-87
2022/07/02 04:02:19;;;;;;;2.90;2.70;;;11.70;99.90;;;;;;5099118;28;20200;-87
2022/07/02 04:05:08;;;;;;;2.70;2.50;;;11.70;99.90;;;;;;5090056;28;20549;-87
2022/07/02 04:07:39;;;;;;;2.90;2.70;;;11.70;99.90;;;;;;5100170;28;20189;-86
2022/07/02 04:10:09;;;;;;;2.33;2.20;;;11.70;99.90;;;;;;5093560;28;20554;-87
2022/07/02 04:12:36;;;;;;;3.20;2.90;;;11.80;99.90;;;;;;5091765;28;20231;-86
2022/07/02 04:15:04;;;;;;;2.97;2.78;;;11.90;99.90;;;;;;5095300;28;20189;-87
2022/07/02 04:17:33;;;;;;;3.30;2.90;;;11.90;99.90;;;;;;5097336;28;20658;-87
2022/07/02 04:20:03;;;;;;;2.92;2.72;;;11.90;99.90;;;;;;5100311;28;20197;-87
2022/07/02 04:22:33;;;;;;;3.03;2.83;;;12.00;99.90;;;;;;5095045;28;20197;-87
2022/07/02 04:25:09;;;;;;;2.83;2.63;;;12.00;99.90;;;;;;5099446;28;20215;-87
2022/07/02 04:28:02;;;;;;;2.88;2.67;;;12.10;99.90;;;;;;5096474;28;20200;-86
2022/07/02 04:30:33;;;;;;;3.13;2.92;;;12.10;99.90;;;;;;5093522;28;20200;-87
2022/07/02 04:33:22;;;;;;;3.15;2.95;;;12.00;99.90;;;;;;5095457;28;20228;-86
2022/07/02 04:36:20;;;;;;;3.78;2.85;;;12.00;99.90;;;;;;5090289;28;20207;-87
2022/07/02 04:39:03;;;;;;;3.67;3.38;;;12.00;99.90;;;;;;5093854;28;20204;-87
2022/07/02 04:41:42;;;;;;;3.90;3.60;;;12.00;99.90;;;;;;5098973;28;20280;-87
2022/07/02 04:44:09;;;;;;;4.18;3.78;;;12.00;99.90;;;;;;5093567;28;20211;-87
2022/07/02 04:47:14;;;;;;;4.18;3.78;;;12.00;99.90;;;;;;5100649;28;20193;-87
2022/07/02 04:49:47;;;;;;;3.92;3.63;;;12.10;99.90;;;;;;5094250;28;20225;-87
2022/07/02 04:56:04;;;;;;;3.80;3.40;;;12.60;99.90;;;;;;5099064;28;20188;-87
2022/07/02 04:58:39;;;;;;;3.63;3.33;;;12.90;99.50;;;;;;5091205;28;20292;-87
2022/07/02 05:04:56;;;;;;;3.47;3.17;;;13.10;98.30;;;;;;5096067;28;20582;-87
2022/07/02 05:07:44;;;;;;;3.50;3.20;;;13.10;97.60;;;;;;5101025;28;20265;-87
2022/07/02 05:13:19;;;;;;;9.32;3.10;;;12.80;98.30;;;;;;5089778;28;20228;-87
2022/07/02 05:16:36;;;;;;;;;;;;;;;;;;;;;
2022/07/02 05:19:04;;;;;;;5.57;3.28;;;12.70;99.10;;;;;;5098017;28;20279;-87
2022/07/02 05:21:42;;;;;;;4.50;3.28;;;12.60;99.40;;;;;;5100102;28;20193;-87
2022/07/02 05:24:15;;;;;;;4.63;3.42;;;12.70;99.80;;;;;;5099056;28;20207;-86
2022/07/02 05:26:42;;;;;;;3.35;3.05;;;12.90;99.90;;;;;;5098756;28;20188;-87
2022/07/02 05:29:09;;;;;;;3.90;3.60;;;13.20;99.50;;;;;;5093764;28;20203;-87
2022/07/02 05:31:45;;;;;;;5.25;3.33;;;13.50;98.50;;;;;;5085325;28;20205;-87
2022/07/02 05:34:15;;;;;;;3.95;3.33;;;13.40;97.70;;;;;;5094703;28;20215;-87
2022/07/02 05:36:58;;;;;;;4.32;3.50;;;13.60;98.20;;;;;;5092480;28;20652;-88
2022/07/02 05:39:27;;;;;;;5.40;3.28;;;13.70;97.40;;;;;;5093750;28;20204;-88
2022/07/02 05:41:57;;;;;;;3.38;3.17;;;13.80;97.00;;;;;;5094213;28;20695;-87
2022/07/02 05:44:33;;;;;;;3.30;3.00;;;13.80;97.70;;;;;;5090699;28;20231;-87
2022/07/02 05:47:42;;;;;;;3.67;3.38;;;13.80;97.80;;;;;;5092379;28;20196;-88
2022/07/02 05:50:10;;;;;;;3.35;3.05;;;13.70;97.70;;;;;;5090501;28;20214;-89
2022/07/02 05:52:52;;;;;;;4.40;3.28;;;13.80;97.80;;;;;;5093761;28;20227;-88
2022/07/02 05:55:21;;;;;;;3.25;2.95;;;13.80;97.90;;;;;;5085505;28;20212;-87
2022/07/02 05:57:51;;;;;;;3.20;3.00;;;14.10;98.10;;;;;;5092623;28;20200;-87
2022/07/02 06:00:18;;;;;;;3.40;3.10;;;14.30;97.30;;;;;;5091877;28;20275;-88
2022/07/02 06:02:51;;;;;;;3.63;3.00;;;14.30;97.30;;;;;;5091738;28;20656;-88
2022/07/02 06:08:17;;;;;;;3.45;2.90;;;14.30;97.40;;;;;;5089668;28;20567;-88
2022/07/02 06:11:10;;;;;;;2.90;2.70;;;14.40;97.60;;;;;;5094069;28;20192;-88
2022/07/02 06:13:39;;;;;;;2.85;2.50;;;14.80;97.10;;;;;;5085961;28;20216;-87
2022/07/02 06:16:09;;;;;;;5.18;2.83;;;14.80;96.90;;;;;;5069631;28;20194;-87
2022/07/02 06:18:39;;;;;;;2.85;1.98;;;14.80;96.90;;;;;;5093309;28;20197;-88
2022/07/02 06:21:32;;;;;;;2.38;2.17;;;14.80;96.90;;;;;;5093505;28;20193;-88
2022/07/02 06:24:16;;;;;;;1.95;1.85;;;14.90;96.90;;;;;;5092250;28;20909;-87
2022/07/02 06:26:43;;;;;;;1.77;1.67;;;15.00;97.00;;;;;;5091777;28;20192;-88
2022/07/02 06:29:21;;;;;;;1.83;1.73;;;15.10;96.90;;;;;;5091958;28;20197;-88
2022/07/02 06:31:51;;;;;;;1.70;1.60;;;15.00;96.90;;;;;;5087660;28;20213;-87
2022/07/02 06:34:27;;;;;;;1.60;1.50;;;15.00;96.90;;;;;;5086668;28;20544;-88
2022/07/02 06:37:03;;;;;;;1.65;1.55;;;15.00;96.90;;;;;;5086119;28;20614;-88
2022/07/02 06:39:46;;;;;;;1.40;1.30;;;15.00;98.00;;;;;;5085194;28;20200;-88
2022/07/02 06:42:22;;;;;;;1.50;1.40;;;15.20;97.60;;;;;;5087183;28;20274;-88
2022/07/02 06:44:58;;;;;;;1.48;1.38;;;15.20;98.10;;;;;;5092365;28;20283;-88
2022/07/02 06:47:26;;;;;;;1.30;1.05;;;15.30;97.40;;;;;;5082516;28;20204;-88
2022/07/02 06:49:55;;;;;;;1.45;1.30;;;15.40;97.00;;;;;;5079559;28;20279;-87
2022/07/02 06:52:28;;;;;;;2.00;1.00;;;15.40;97.00;;;;;;5087856;28;20213;-88
2022/07/02 06:55:05;;;;;;;1.20;1.20;;;15.50;97.00;;;;;;5086999;28;20196;-88
2022/07/02 06:57:35;;;;;;;0.95;0.95;;;15.50;96.70;;;;;;5078727;28;20682;-88
2022/07/02 07:00:21;;;;;;;2.35;1.05;;;15.70;96.60;;;;;;5088938;28;20619;-88
2022/07/02 07:03:32;;;;;;;1.92;1.00;;;15.70;97.10;;;;;;5086573;28;20201;-88
2022/07/02 07:06:09;;;;;;;1.00;0.90;;;15.80;96.40;;;;;;5079636;28;20211;-90
2022/07/02 07:08:45;;;;;;;1.27;1.15;;;15.80;95.90;;;;;;5086610;28;20659;-89
2022/07/02 07:11:16;;;;;;;0.88;0.88;;;16.10;94.50;;;;;;5086567;28;20283;-87
2022/07/02 07:13:54;;;;;;;1.10;1.00;;;16.30;93.80;;;;;;5083159;28;20568;-88
2022/07/02 07:16:21;;;;;;;0.80;0.80;;;16.60;92.80;;;;;;5092841;28;20196;-89
2022/07/02 07:18:49;;;;;;;1.20;1.10;;;16.70;92.30;;;;;;5085791;28;20201;-88
2022/07/02 07:21:16;;;;;;;1.40;1.17;;;16.90;91.90;;;;;;5091879;28;20606;-88
2022/07/02 07:23:43;;;;;;;2.45;1.08;;;17.20;91.60;;;;;;5089243;28;20228;-87
2022/07/02 07:26:17;;;;;;;0.90;0.90;;;17.30;90.10;;;;;;5091659;28;20655;-87
2022/07/02 07:28:51;;;;;;;0.90;0.90;;;17.60;87.80;;;;;;5091494;28;20954;-87
2022/07/02 07:31:33;;;;;;;1.55;0.75;;;17.50;88.20;;;;;;5086464;28;20200;-89
2022/07/02 07:34:01;;;;;;;1.58;1.20;;;17.80;86.30;;;;;;5087379;28;20196;-89
2022/07/02 07:36:45;;;;;;;1.40;0.90;;;18.10;85.10;;;;;;5085580;28;20585;-89
2022/07/02 07:39:12;;;;;;;0.80;0.80;;;18.20;83.10;;;;;;5086426;28;20208;-88
2022/07/02 07:41:52;;;;;;;1.00;0.90;;;18.10;83.80;;;;;;5080402;28;20287;-89
2022/07/02 07:44:27;;;;;;;1.15;1.08;;;18.00;88.80;;;;;;5095423;28;20203;-87
2022/07/02 07:47:03;;;;;;;3.10;0.93;;;17.60;88.80;;;;;;5089250;28;20210;-87
2022/07/02 07:49:30;;;;;;;1.13;0.90;;;17.60;87.20;;;;;;5094281;28;20196;-87
2022/07/02 07:52:03;;;;;;;0.95;0.95;;;17.70;85.20;;;;;;5093643;28;20659;-88
2022/07/02 07:54:30;;;;;;;0.90;0.90;;;17.50;86.60;;;;;;5091744;28;20216;-86
2022/07/02 07:57:05;;;;;;;0.80;0.80;;;17.60;89.70;;;;;;5091544;28;20192;-86
2022/07/02 07:59:32;;;;;;;1.00;0.90;;;17.80;88.70;;;;;;5089343;28;20197;-86
2022/07/02 08:01:59;;;;;;;0.93;0.93;;;17.80;87.30;;;;;;5086275;28;20196;-87
2022/07/02 08:04:26;;;;;;;0.95;0.88;;;18.00;85.40;;;;;;5084650;28;20190;-85
2022/07/02 08:07:05;;;;;;;0.88;0.88;;;18.10;81.30;;;;;;5080970;28;20197;-93
2022/07/02 08:09:33;;;;;;;0.80;0.80;;;18.20;81.20;;;;;;5085344;28;20208;-85
2022/07/02 08:12:06;;;;;;;0.90;0.90;;;18.30;80.50;;;;;;5093276;28;20200;-85
2022/07/02 08:14:33;;;;;;;0.93;0.93;;;18.10;79.50;;;;;;5090363;28;20197;-85
2022/07/02 08:17:06;;;;;;;0.70;0.70;;;18.10;79.50;;;;;;5091575;28;20205;-85
2022/07/02 08:19:39;;;;;;;1.40;0.98;;;18.30;76.70;;;;;;5092933;28;20200;-88
2022/07/02 08:22:24;;;;;;;0.95;0.95;;;18.70;77.00;;;;;;5083425;28;20577;-87
2022/07/02 08:24:54;;;;;;;0.88;0.77;;;20.20;58.00;;;;;;5089095;28;20563;-87
2022/07/02 08:27:30;;;;;;;1.17;0.80;;;22.30;40.00;;;;;;5092291;28;20555;-87
2022/07/02 08:29:58;;;;;;;0.77;0.77;;;24.10;30.30;;;;;;5086810;28;20196;-86
2022/07/02 08:32:25;;;;;;;2.35;0.90;;;24.80;27.10;;;;;;5096839;28;20234;-85
2022/07/02 08:34:53;;;;;;;1.30;1.20;;;26.40;23.80;;;;;;5090000;28;20201;-89
2022/07/02 08:37:22;;;;;;;0.95;0.95;;;27.50;20.00;;;;;;5090488;28;20256;-85
2022/07/02 08:39:57;;;;;;;1.52;1.20;;;27.70;19.40;;;;;;5088918;28;20200;-84
2022/07/02 08:42:36;;;;;;;1.17;1.08;;;27.40;19.00;;;;;;5091430;28;20225;-86
2022/07/02 08:45:12;;;;;;;1.27;1.17;;;28.50;17.90;;;;;;5094819;28;20208;-86
2022/07/02 08:47:44;;;;;;;2.17;1.30;;;28.80;17.20;;;;;;5081859;28;20192;-87
2022/07/02 08:50:12;;;;;;;1.20;1.20;;;29.20;16.20;;;;;;5089375;28;20984;-85
2022/07/02 08:52:45;;;;;;;2.13;1.60;;;29.50;16.40;;;;;;5085969;28;20228;-86
2022/07/02 08:55:33;;;;;;;2.22;1.52;;;29.70;16.50;;;;;;5087404;28;20197;-86
2022/07/02 08:58:02;;;;;;;2.17;1.75;;;29.40;16.20;;;;;;5087118;28;20214;-85
2022/07/02 09:00:29;;;;;;;2.92;1.77;;;30.40;13.60;;;;;;5087171;28;20208;-86
2022/07/02 09:02:58;;;;;;;1.95;1.85;;;29.60;14.70;;;;;;5082061;28;20193;-86
2022/07/02 09:05:26;;;;;;;1.80;1.70;;;29.90;15.20;;;;;;5081079;28;20208;-85
2022/07/02 09:08:03;;;;;;;2.00;1.90;;;30.00;13.10;;;;;;5089814;28;20207;-88
2022/07/02 09:10:30;;;;;;;1.90;1.80;;;30.00;13.80;;;;;;5094970;28;20215;-86
2022/07/02 09:13:17;;;;;;;2.05;1.65;;;30.20;13.80;;;;;;5084178;28;20216;-87
2022/07/02 09:15:45;;;;;;;2.05;1.95;;;30.40;14.40;;;;;;5089333;28;20208;-85
2022/07/02 09:18:12;;;;;;;2.42;2.20;;;29.80;16.10;;;;;;5092452;28;20585;-84
2022/07/02 09:20:57;;;;;;;2.08;1.90;;;29.50;15.80;;;;;;5099529;28;20261;-85
2022/07/02 09:23:33;;;;;;;2.53;1.90;;;29.10;16.20;;;;;;5094770;28;20219;-84
2022/07/02 09:26:18;;;;;;;2.00;1.90;;;29.40;16.30;;;;;;5085289;28;20200;-85
2022/07/02 09:29:04;;;;;;;2.20;2.00;;;29.70;14.30;;;;;;5082717;28;20193;-85
2022/07/02 09:31:33;;;;;;;3.50;2.28;;;29.10;16.20;;;;;;5085778;28;20193;-85
2022/07/02 09:34:09;;;;;;;2.35;1.95;;;29.50;14.90;;;;;;5088754;28;20230;-87
2022/07/02 09:36:36;;;;;;;2.10;1.90;;;30.60;12.90;;;;;;5082930;28;20204;-85
2022/07/02 09:39:32;;;;;;;2.30;2.10;;;30.60;12.80;;;;;;5079227;28;20242;-85
2022/07/02 09:41:59;;;;;;;2.13;2.03;;;30.80;12.40;;;;;;5083387;28;20240;-85
2022/07/02 09:44:28;;;;;;;2.75;2.13;;;30.20;12.60;;;;;;5083183;28;20192;-86
2022/07/02 09:47:14;;;;;;;2.00;1.90;;;30.10;14.20;;;;;;5084196;28;20264;-87
2022/07/02 09:49:48;;;;;;;2.35;2.25;;;30.10;14.40;;;;;;5089047;28;20196;-86
2022/07/02 09:52:27;;;;;;;2.20;2.00;;;31.20;11.90;;;;;;5082383;28;20240;-86
2022/07/02 09:54:54;;;;;;;2.08;1.98;;;30.00;13.50;;;;;;5085213;28;20196;-86
2022/07/02 09:57:28;;;;;;;2.22;2.03;;;30.20;13.10;;;;;;5082175;28;20192;-85
2022/07/02 10:00:08;;;;;;;2.10;2.00;;;30.30;13.30;;;;;;5089464;28;20207;-85
2022/07/02 10:02:39;;;;;;;2.00;1.90;;;31.00;11.40;;;;;;5085109;28;20227;-87
2022/07/02 10:05:09;;;;;;;1.90;1.80;;;30.80;11.80;;;;;;5080172;28;20202;-86
2022/07/02 10:07:36;;;;;;;2.17;2.08;;;30.60;12.20;;;;;;5086796;28;20652;-85
2022/07/02 10:10:05;;;;;;;2.42;2.33;;;30.40;13.10;;;;;;5091228;28;20198;-86
2022/07/02 10:12:32;;;;;;;2.78;2.30;;;30.60;12.10;;;;;;5092671;28;20200;-86
2022/07/02 10:15:30;;;;;;;2.97;2.17;;;30.70;13.20;;;;;;5085350;28;20197;-87
2022/07/02 10:18:10;;;;;;;2.45;2.30;;;31.40;9.50;;;;;;5089508;28;20219;-87
2022/07/02 10:20:36;;;;;;;2.30;2.10;;;30.90;11.00;;;;;;5086853;28;20193;-83
2022/07/02 10:23:06;;;;;;;2.55;2.03;;;31.70;9.70;;;;;;5084858;28;20210;-86
2022/07/02 10:25:35;;;;;;;2.67;2.10;;;31.40;10.00;;;;;;5079987;28;20195;-86
2022/07/02 10:28:03;;;;;;;2.45;2.22;;;31.00;11.10;;;;;;5082499;28;20207;-85
2022/07/02 10:30:42;;;;;;;2.20;2.00;;;31.30;10.40;;;;;;5084646;28;20203;-86
2022/07/02 10:33:23;;;;;;;2.10;2.00;;;30.80;11.30;;;;;;5086217;28;20230;-84
2022/07/02 10:35:51;;;;;;;1.80;1.70;;;31.30;10.60;;;;;;5085673;28;20726;-84
2022/07/02 10:38:31;;;;;;;2.22;2.05;;;30.30;12.30;;;;;;5084200;28;20204;-83
2022/07/02 10:41:03;;;;;;;2.20;1.80;;;29.50;13.70;;;;;;5083468;28;20726;-87
2022/07/02 10:43:34;;;;;;;2.58;1.88;;;29.80;12.80;;;;;;5081307;28;20231;-82
2022/07/02 10:46:07;;;;;;;2.00;1.90;;;30.20;11.10;;;;;;5090094;28;20207;-82
2022/07/02 10:48:36;;;;;;;1.80;1.70;;;30.00;12.30;;;;;;5088919;28;20184;-82
2022/07/02 10:51:03;;;;;;;1.77;1.67;;;29.80;13.80;;;;;;5101235;28;20204;-80
2022/07/02 10:53:30;;;;;;;2.08;1.98;;;29.90;10.90;;;;;;5095186;28;20273;-81
2022/07/02 10:55:59;;;;;;;2.72;1.90;;;29.40;14.50;;;;;;5096010;28;20196;-81
2022/07/02 10:58:27;;;;;;;1.90;1.77;;;29.60;12.20;;;;;;5092463;28;20258;-80
2022/07/02 11:00:55;;;;;;;1.60;1.50;;;29.70;13.10;;;;;;5083680;28;20580;-81
2022/07/02 11:03:24;;;;;;;4.30;3.58;;;29.20;12.60;;;;;;5091474;28;20204;-81
2022/07/02 11:06:00;;;;;;;7.75;7.10;;;29.50;12.60;;;;;;5090769;28;20222;-78
2022/07/02 11:08:52;;;;;;;2.38;1.85;;;28.90;13.20;;;;;;5091675;28;20242;-80
2022/07/02 11:11:22;;;;;;;4.40;1.35;;;27.80;15.50;;;;;;5094162;28;20224;-82
2022/07/02 11:13:55;;;;;;;2.25;1.20;;;27.50;15.40;;;;;;5089569;28;20560;-80
2022/07/02 11:16:29;;;;;;;2.33;1.35;;;26.60;18.20;;;;;;5086889;28;20192;-81
2022/07/02 11:18:59;;;;;;;1.67;1.17;;;26.20;17.30;;;;;;5089915;28;20203;-80
2022/07/02 11:21:33;;;;;;;1.33;1.23;;;26.10;15.30;;;;;;5091897;28;20216;-81
2022/07/02 11:24:01;;;;;;;1.45;1.35;;;25.70;16.30;;;;;;5090830;28;20211;-83
2022/07/02 11:26:36;;;;;;;1.40;1.30;;;25.50;16.50;;;;;;5088003;28;20200;-89
2022/07/02 11:29:10;;;;;;;2.00;1.02;;;25.10;18.70;;;;;;5094030;28;20204;-92
2022/07/02 11:31:53;;;;;;;1.10;0.98;;;25.00;20.00;;;;;;5092047;28;20279;-84
2022/07/02 11:34:24;;;;;;;0.80;0.80;;;25.00;15.70;;;;;;5084560;28;20205;-84
2022/07/02 11:36:57;;;;;;;2.33;1.45;;;25.00;17.70;;;;;;5083875;28;20201;-85
2022/07/02 11:39:33;;;;;;;1.40;1.30;;;25.00;17.90;;;;;;5082024;28;20296;-84
2022/07/02 11:42:09;;;;;;;3.67;1.33;;;24.90;19.30;;;;;;5081162;28;20223;-86
2022/07/02 11:44:39;;;;;;;2.10;0.90;;;24.60;18.40;;;;;;5089709;28;20192;-85
2022/07/02 11:47:06;;;;;;;1.05;0.90;;;24.60;18.80;;;;;;5090595;28;20197;-87
2022/07/02 11:49:40;;;;;;;1.38;1.00;;;24.20;17.50;;;;;;5093783;28;20204;-87
2022/07/02 11:52:07;;;;;;;1.75;1.17;;;24.20;17.70;;;;;;5093280;28;20209;-86
2022/07/02 11:54:43;;;;;;;1.33;0.90;;;24.40;16.30;;;;;;5085010;28;20221;-86
2022/07/02 11:57:15;;;;;;;1.27;1.05;;;24.40;15.70;;;;;;5097371;28;20188;-86
2022/07/02 11:59:52;;;;;;;1.45;0.82;;;24.40;18.30;;;;;;5104351;28;20558;-86
2022/07/02 12:02:48;;;;;;;1.48;1.00;;;24.40;15.50;;;;;;5095754;28;20200;-87
2022/07/02 12:05:19;;;;;;;0.95;0.95;;;24.50;17.40;;;;;;5062567;28;20237;-86
2022/07/02 12:07:47;;;;;;;1.08;0.98;;;24.00;18.50;;;;;;5089338;28;20192;-87
2022/07/02 12:10:51;;;;;;;1.98;1.20;;;24.30;16.90;;;;;;5094675;28;20678;-86
2022/07/02 12:13:18;;;;;;;2.05;1.80;;;24.30;16.80;;;;;;5092290;28;20203;-86
2022/07/02 12:15:46;;;;;;;1.35;1.17;;;24.10;19.00;;;;;;5096022;28;20197;-86
2022/07/02 12:18:22;;;;;;;1.10;1.00;;;24.10;17.50;;;;;;5091806;28;20193;-87
2022/07/02 12:21:09;;;;;;;2.65;1.40;;;24.20;16.80;;;;;;5090039;28;20650;-87
2022/07/02 12:23:47;;;;;;;1.30;0.98;;;24.30;19.20;;;;;;5085379;28;20200;-87
2022/07/02 12:26:22;;;;;;;1.40;1.30;;;24.40;16.30;;;;;;5090202;28;20208;-88
2022/07/02 12:31:52;;;;;;;0.88;0.88;;;24.30;17.60;;;;;;5091723;28;20196;-87
2022/07/02 12:34:20;;;;;;;1.10;1.00;;;24.40;15.50;;;;;;5093613;28;20212;-86
2022/07/02 12:37:05;;;;;;;2.28;1.10;;;24.50;17.40;;;;;;5084762;28;20202;-87
2022/07/02 12:39:41;;;;;;;16.25;14.63;;;24.50;16.60;;;;;;5089371;28;20227;-86
2022/07/02 12:42:27;;;;;;;1.73;1.58;;;24.40;17.30;;;;;;5081541;28;20586;-88
2022/07/02 12:45:06;;;;;;;1.27;1.08;;;24.40;18.80;;;;;;5090434;28;20204;-87
2022/07/02 12:47:40;;;;;;;1.10;1.00;;;24.50;17.40;;;;;;5085655;28;20189;-87
2022/07/02 12:50:12;;;;;;;2.13;1.30;;;24.60;18.80;;;;;;5086979;28;20204;-87
2022/07/02 12:52:49;;;;;;;2.45;1.20;;;24.50;17.80;;;;;;5089248;28;20200;-88
2022/07/02 12:55:36;;;;;;;3.78;1.27;;;24.40;18.90;;;;;;5090462;28;20208;-88
2022/07/02 12:58:11;;;;;;;1.58;1.48;;;24.40;19.30;;;;;;5088122;28;20686;-90
2022/07/02 13:00:42;;;;;;;1.15;1.05;;;24.40;20.90;;;;;;5090821;28;20212;-90
2022/07/02 13:03:11;;;;;;;3.83;1.30;;;24.60;18.50;;;;;;5085231;28;20650;-89
2022/07/02 13:05:40;;;;;;;1.75;1.30;;;24.50;18.80;;;;;;5078549;28;20247;-89
2022/07/02 13:08:17;;;;;;;2.30;1.20;;;24.60;18.40;;;;;;5084390;28;20683;-89
2022/07/02 13:10:58;;;;;;;1.00;0.90;;;24.60;19.00;;;;;;5086154;28;20222;-89
2022/07/02 13:13:26;;;;;;;2.92;1.42;;;24.50;19.20;;;;;;5084983;28;20201;-89
2022/07/02 13:16:03;;;;;;;1.35;1.20;;;24.60;20.30;;;;;;5085399;28;20226;-89
2022/07/02 13:18:39;;;;;;;4.07;1.58;;;24.30;18.70;;;;;;5088723;28;20217;-88
2022/07/02 13:21:06;;;;;;;1.42;1.30;;;24.30;18.90;;;;;;5094897;28;20291;-87
2022/07/02 13:23:35;;;;;;;7.25;5.63;;;24.40;19.50;;;;;;5093843;28;20265;-86
2022/07/02 13:26:09;;;;;;;1.42;1.20;;;24.40;19.30;;;;;;5086200;28;20711;-86
2022/07/02 13:28:36;;;;;;;2.22;1.98;;;24.50;19.30;;;;;;5083710;28;20201;-86
2022/07/02 13:31:09;;;;;;;1.40;1.30;;;24.40;20.20;;;;;;5086719;28;20581;-86
2022/07/02 13:34:03;;;;;;;1.30;1.20;;;24.60;19.40;;;;;;5084987;28;20201;-86
2022/07/02 13:37:03;;;;;;;1.67;1.58;;;24.50;20.00;;;;;;5087997;28;20188;-85
2022/07/02 13:39:31;;;;;;;1.88;1.27;;;24.40;20.00;;;;;;5089040;28;20207;-86
2022/07/02 13:42:33;;;;;;;1.50;1.40;;;24.40;19.50;;;;;;5084549;28;20216;-85
2022/07/02 13:45:10;;;;;;;1.63;1.42;;;24.50;21.20;;;;;;5083916;28;20205;-87
2022/07/02 13:47:45;;;;;;;3.63;2.83;;;24.30;20.70;;;;;;5086152;28;20200;-87
2022/07/02 13:50:27;;;;;;;2.70;1.05;;;24.30;21.90;;;;;;5085551;28;20207;-90
2022/07/02 13:52:54;;;;;;;1.83;1.15;;;24.30;21.20;;;;;;5084655;28;20193;-86
2022/07/02 13:55:27;;;;;;;2.35;2.15;;;24.40;21.30;;;;;;5084751;28;20209;-86
2022/07/02 13:58:03;;;;;;;2.63;1.27;;;24.40;21.00;;;;;;5086462;28;20203;-87
2022/07/02 14:00:33;;;;;;;2.83;1.20;;;24.40;21.20;;;;;;5091433;28;20196;-86
2022/07/02 14:03:00;;;;;;;1.63;1.40;;;24.40;22.50;;;;;;5090265;28;20201;-85
2022/07/02 14:05:33;;;;;;;2.58;1.40;;;24.40;21.90;;;;;;5087810;28;20275;-86
2022/07/02 14:08:03;;;;;;;2.08;1.40;;;24.50;21.70;;;;;;5081743;28;20200;-86
2022/07/02 14:11:14;;;;;;;1.70;1.33;;;24.70;22.00;;;;;;5081492;28;20193;-86
2022/07/02 14:13:45;;;;;;;2.08;1.25;;;24.50;21.70;;;;;;5091395;28;20192;-85
2022/07/02 14:16:15;;;;;;;1.13;1.02;;;24.30;23.20;;;;;;5089776;28;20197;-86
2022/07/02 14:18:45;;;;;;;5.03;1.50;;;24.50;21.90;;;;;;5087668;28;20197;-85
2022/07/02 14:21:16;;;;;;;1.48;1.38;;;24.40;22.30;;;;;;5096545;28;20196;-84
2022/07/02 14:23:45;;;;;;;1.50;1.40;;;24.50;21.90;;;;;;5094794;28;20200;-85
2022/07/02 14:26:15;;;;;;;3.80;1.30;;;24.40;22.80;;;;;;5088321;28;20199;-86